Time;durP1;ratioP1;P1;durP2;ratioP2;P2;SDS_P1;SDS_P2;PMS_P1;PMS_P2;Temp;Humidity;BMP_temperature;BMP_pressure;BME280_temperature;BME280_humidity;BME280_pressure;Samples;Min_cycle;Max_cycle;Signal;HPM_P1;HPM_P2
2021/12/15 00:00:29;;;;;;;115.20;53.80;;;;;;;2.17;90.25;99631.52;420271;1313;110775;-41
2021/12/15 00:10:48;;;;;;;72.60;37.10;;;;;;;2.13;90.19;99636.62;420281;1312;108810;-41
2021/12/15 00:20:55;;;;;;;87.10;40.90;;;;;;;2.13;90.03;99619.13;420231;1312;97687;-43
2021/12/15 00:31:05;;;;;;;62.30;35.30;;;;;;;2.17;90.16;99607.70;420096;1312;111242;-41
2021/12/15 00:41:12;;;;;;;64.60;38.90;;;;;;;2.31;90.31;99612.52;420107;1313;108975;-41
2021/12/15 00:51:19;;;;;;;89.60;43.80;;;;;;;2.39;90.22;99609.95;420321;1313;97453;-42
2021/12/15 01:11:50;;;;;;;89.80;45.60;;;;;;;2.28;90.22;99621.31;420287;1313;97979;-42
2021/12/15 01:21:58;;;;;;;64.20;37.00;;;;;;;2.18;90.05;99632.44;419853;1313;455776;-41
2021/12/15 01:32:03;;;;;;;60.80;35.80;;;;;;;2.21;90.04;99627.96;420151;1313;107021;-42
2021/12/15 01:42:10;;;;;;;61.30;36.50;;;;;;;2.28;90.29;99621.87;420208;1313;97657;-41
2021/12/15 01:52:21;;;;;;;61.80;36.00;;;;;;;2.35;90.18;99619.27;420212;1313;111016;-42
2021/12/15 02:02:29;;;;;;;89.50;43.70;;;;;;;2.34;90.07;99624.38;420279;1312;109132;-42
2021/12/15 02:12:36;;;;;;;99.50;47.40;;;;;;;2.26;90.24;99639.63;420346;1312;97961;-42
2021/12/15 02:22:45;;;;;;;98.80;48.50;;;;;;;2.13;90.20;99648.05;420384;1312;111062;-43
2021/12/15 02:43:20;;;;;;;72.50;43.50;;;;;;;2.17;90.29;99664.23;420681;1302;97565;-41
2021/12/15 02:53:28;;;;;;;73.60;40.00;;;;;;;2.32;90.32;99675.70;420005;1313;110109;-41
2021/12/15 03:04:08;;;;;;;69.30;38.10;;;;;;;2.45;90.19;99672.38;420111;1313;108726;-41
2021/12/15 03:24:40;;;;;;;92.60;42.80;;;;;;;2.34;90.24;99684.09;420305;1313;111117;-41
2021/12/15 03:35:00;;;;;;;92.30;39.80;;;;;;;2.23;90.32;99696.46;420152;1313;109422;-41
2021/12/15 03:45:11;;;;;;;81.70;37.80;;;;;;;2.25;90.22;99691.78;420377;1313;108925;-42
2021/12/15 03:55:20;;;;;;;64.60;35.90;;;;;;;2.32;90.22;99688.24;420084;1313;98018;-42
2021/12/15 04:05:30;;;;;;;57.80;34.40;;;;;;;2.42;90.26;99682.70;420342;1314;109005;-41
2021/12/15 04:25:51;;;;;;;88.50;40.10;;;;;;;2.30;90.20;99671.98;420457;1313;111623;-41
2021/12/15 04:36:02;;;;;;;97.00;38.50;;;;;;;2.16;90.27;99678.54;420198;1312;108785;-41
2021/12/15 04:46:12;;;;;;;62.20;34.60;;;;;;;2.12;90.20;99695.82;420259;1315;98161;-41
2021/12/15 04:56:21;;;;;;;71.60;37.30;;;;;;;2.15;90.19;99695.89;420118;1314;111160;-42
2021/12/15 05:06:28;;;;;;;66.80;34.40;;;;;;;2.26;90.29;99704.84;420435;1314;108811;-41
2021/12/15 05:16:35;;;;;;;72.20;35.70;;;;;;;2.40;90.35;99719.86;420129;1313;97550;-41
2021/12/15 05:26:42;;;;;;;90.70;44.70;;;;;;;2.54;90.53;99723.36;420405;1315;108001;-42
2021/12/15 05:36:52;;;;;;;86.90;39.50;;;;;;;2.41;90.38;99724.45;420143;1315;97950;-40
2021/12/15 05:47:00;;;;;;;94.50;38.00;;;;;;;2.30;90.35;99730.38;420491;1313;98054;-41
2021/12/15 05:57:05;;;;;;;69.90;37.10;;;;;;;2.29;90.38;99738.52;419107;1314;109697;-42
2021/12/15 06:07:13;;;;;;;86.20;45.80;;;;;;;2.40;90.47;99749.77;419973;1314;109789;-41
2021/12/15 06:27:29;;;;;;;88.60;42.60;;;;;;;2.65;90.49;99758.07;420349;1314;108321;-45
2021/12/15 06:37:38;;;;;;;117.70;48.20;;;;;;;2.71;90.56;99763.79;420445;1313;97977;-41
2021/12/15 06:58:15;;;;;;;104.90;45.60;;;;;;;2.56;90.54;99779.58;420316;1315;108972;-41
2021/12/15 07:08:22;;;;;;;80.50;40.70;;;;;;;2.56;90.54;99790.21;420215;1315;97574;-41
2021/12/15 07:18:37;;;;;;;79.90;43.60;;;;;;;2.64;90.43;99802.16;420479;1314;111804;-40
2021/12/15 07:28:43;;;;;;;96.20;50.90;;;;;;;2.76;90.63;99815.84;420013;1315;109124;-41
2021/12/15 07:38:50;;;;;;;75.60;35.40;;;;;;;2.95;90.70;99829.51;420562;1315;98590;-40
2021/12/15 07:48:58;;;;;;;75.40;36.50;;;;;;;2.95;90.59;99843.03;420311;1315;108941;-41
2021/12/15 07:59:05;;;;;;;92.10;38.80;;;;;;;2.93;90.81;99843.77;420358;1315;97955;-40
2021/12/15 08:09:13;;;;;;;66.30;34.30;;;;;;;2.95;90.68;99854.39;419175;1315;97958;-41
2021/12/15 08:19:20;;;;;;;58.40;29.20;;;;;;;3.06;90.59;99861.30;420073;1315;111166;-40
2021/12/15 08:29:28;;;;;;;61.90;34.00;;;;;;;3.21;90.59;99869.62;420303;1313;108955;-41
2021/12/15 08:39:35;;;;;;;139.50;65.90;;;;;;;3.36;90.68;99876.80;420108;1314;97831;-42
2021/12/15 08:49:42;;;;;;;128.60;52.10;;;;;;;3.35;90.75;99885.13;420201;1313;106923;-41
2021/12/15 08:59:50;;;;;;;113.10;43.70;;;;;;;3.25;90.71;99885.56;420182;1313;98063;-40
2021/12/15 09:09:57;;;;;;;51.60;27.40;;;;;;;3.25;90.47;99880.04;420168;1315;97984;-40
2021/12/15 09:20:08;;;;;;;58.10;31.70;;;;;;;3.31;90.62;99873.27;416281;1317;5553201;-40
2021/12/15 09:30:16;;;;;;;58.60;30.40;;;;;;;3.43;90.70;99871.74;420115;1315;97354;-41
2021/12/15 09:40:24;;;;;;;49.80;25.90;;;;;;;3.53;90.67;99877.89;420276;1318;111243;-42
2021/12/15 10:22:05;;;;;;;44.30;24.80;;;;;;;3.98;90.77;99838.02;420246;1313;108902;-42
2021/12/15 10:32:15;;;;;;;41.60;23.60;;;;;;;4.12;90.63;99821.60;420318;1314;98072;-40
2021/12/15 10:42:31;;;;;;;40.80;22.80;;;;;;;4.24;90.74;99819.85;419976;1316;109017;-41
2021/12/15 10:52:50;;;;;;;74.10;33.50;;;;;;;4.32;90.76;99813.36;420138;1313;97964;-42
2021/12/15 11:03:03;;;;;;;80.90;37.80;;;;;;;4.35;90.79;99813.67;420431;1316;111758;-42
2021/12/15 11:13:12;;;;;;;79.30;44.30;;;;;;;4.40;90.66;99803.88;420247;1313;106279;-40
2021/12/15 11:23:19;;;;;;;77.10;36.50;;;;;;;4.45;90.72;99809.56;420040;1313;98102;-40
2021/12/15 11:33:28;;;;;;;56.80;27.00;;;;;;;4.59;90.76;99792.39;420180;1313;107208;-41
2021/12/15 11:43:43;;;;;;;62.50;28.20;;;;;;;4.72;90.68;99783.84;420149;1313;97568;-40
2021/12/15 11:53:51;;;;;;;91.30;43.30;;;;;;;4.69;90.82;99789.58;420109;1313;111714;-40
2021/12/15 12:04:09;;;;;;;93.60;43.00;;;;;;;4.55;90.80;99783.16;420009;1313;108302;-43
2021/12/15 12:24:25;;;;;;;112.60;54.70;;;;;;;4.48;90.58;99784.94;419995;1314;111308;-40
2021/12/15 12:34:32;;;;;;;62.40;29.30;;;;;;;4.54;90.85;99797.59;419228;1314;109575;-40
2021/12/15 13:05:34;;;;;;;50.20;25.70;;;;;;;4.57;91.01;99793.96;419826;1313;97936;-41
2021/12/15 13:15:40;;;;;;;62.20;31.70;;;;;;;4.48;91.07;99801.38;420059;1313;111156;-41
2021/12/15 13:36:14;;;;;;;37.20;20.40;;;;;;;4.58;90.98;99812.36;420250;1313;98184;-41
2021/12/15 13:46:42;;;;;;;59.50;27.20;;;;;;;4.67;91.07;99815.67;419956;1313;110807;-40
2021/12/15 22:35:07;;;;;;;84.00;36.40;;;;;;;4.56;94.40;99849.44;408836;1346;639015;-41
2021/12/15 22:45:18;;;;;;;75.70;38.50;;;;;;;4.74;94.20;99854.36;412288;1324;5380833;-41
2021/12/15 22:55:27;;;;;;;73.70;38.80;;;;;;;4.88;93.99;99853.58;418104;1321;108878;-42
2021/12/15 23:05:33;;;;;;;66.30;33.10;;;;;;;4.96;93.89;99845.77;417989;1324;96389;-42
2021/12/15 23:15:40;;;;;;;63.30;32.30;;;;;;;5.02;93.93;99845.08;417898;1321;95298;-42
2021/12/15 23:25:47;;;;;;;56.40;27.50;;;;;;;5.10;93.82;99832.59;417826;1320;107110;-42
2021/12/15 23:35:58;;;;;;;54.90;27.50;;;;;;;5.17;93.87;99831.72;417792;1320;109469;-41
